sensor_id;sensor_type;location;lat;lon;timestamp;temperature;humidity
15959;DHT22;8078;47.822;9.402;2022-08-19T00:01:35;15.00;99.90
15959;DHT22;8078;47.822;9.402;2022-08-19T00:04:05;14.90;99.90
15959;DHT22;8078;47.822;9.402;2022-08-19T00:06:31;14.80;99.90
15959;DHT22;8078;47.822;9.402;2022-08-19T00:08:58;14.80;99.90
15959;DHT22;8078;47.822;9.402;2022-08-19T00:11:26;14.80;99.90
15959;DHT22;8078;47.822;9.402;2022-08-19T00:13:55;14.80;99.90
15959;DHT22;8078;47.822;9.402;2022-08-19T00:16:23;14.80;99.90
15959;DHT22;8078;47.822;9.402;2022-08-19T00:18:48;14.80;99.90
15959;DHT22;8078;47.822;9.402;2022-08-19T00:21:14;14.80;99.90
15959;DHT22;8078;47.822;9.402;2022-08-19T00:23:41;14.80;99.90
15959;DHT22;8078;47.822;9.402;2022-08-19T00:26:09;14.80;99.90
15959;DHT22;8078;47.822;9.402;2022-08-19T00:28:35;14.80;99.90
15959;DHT22;8078;47.822;9.402;2022-08-19T00:31:05;14.80;99.90
15959;DHT22;8078;47.822;9.402;2022-08-19T00:33:31;14.80;99.90
15959;DHT22;8078;47.822;9.402;2022-08-19T00:36:02;14.80;99.90
15959;DHT22;8078;47.822;9.402;2022-08-19T00:38:30;14.80;99.90
15959;DHT22;8078;47.822;9.402;2022-08-19T00:40:56;14.80;99.90
15959;DHT22;8078;47.822;9.402;2022-08-19T00:43:24;14.80;99.90
15959;DHT22;8078;47.822;9.402;2022-08-19T00:45:51;14.80;99.90
15959;DHT22;8078;47.822;9.402;2022-08-19T00:48:18;14.80;99.90
15959;DHT22;8078;47.822;9.402;2022-08-19T00:50:44;14.80;99.90
15959;DHT22;8078;47.822;9.402;2022-08-19T00:53:12;14.80;99.90
15959;DHT22;8078;47.822;9.402;2022-08-19T00:55:41;14.80;99.90
15959;DHT22;8078;47.822;9.402;2022-08-19T00:58:10;14.80;99.90
15959;DHT22;8078;47.822;9.402;2022-08-19T01:00:37;14.90;99.90
15959;DHT22;8078;47.822;9.402;2022-08-19T01:03:06;14.90;99.90
15959;DHT22;8078;47.822;9.402;2022-08-19T01:05:32;14.90;99.90
15959;DHT22;8078;47.822;9.402;2022-08-19T01:08:01;14.90;99.90
15959;DHT22;8078;47.822;9.402;2022-08-19T01:10:29;14.90;99.90
15959;DHT22;8078;47.822;9.402;2022-08-19T01:12:58;14.90;99.90
15959;DHT22;8078;47.822;9.402;2022-08-19T01:15:39;14.90;99.90
15959;DHT22;8078;47.822;9.402;2022-08-19T01:18:08;14.90;99.90
15959;DHT22;8078;47.822;9.402;2022-08-19T01:20:34;15.00;99.90
15959;DHT22;8078;47.822;9.402;2022-08-19T01:23:00;15.00;99.90
15959;DHT22;8078;47.822;9.402;2022-08-19T01:25:39;15.00;99.90
15959;DHT22;8078;47.822;9.402;2022-08-19T01:28:06;15.00;99.90
15959;DHT22;8078;47.822;9.402;2022-08-19T01:30:34;15.00;99.90
15959;DHT22;8078;47.822;9.402;2022-08-19T01:33:01;15.10;99.90
15959;DHT22;8078;47.822;9.402;2022-08-19T01:35:28;15.00;99.90
15959;DHT22;8078;47.822;9.402;2022-08-19T01:37:57;15.10;99.90
15959;DHT22;8078;47.822;9.402;2022-08-19T01:40:27;15.10;99.90
15959;DHT22;8078;47.822;9.402;2022-08-19T01:42:55;15.10;99.90
15959;DHT22;8078;47.822;9.402;2022-08-19T01:45:22;15.10;99.90
15959;DHT22;8078;47.822;9.402;2022-08-19T01:47:48;15.10;99.90
15959;DHT22;8078;47.822;9.402;2022-08-19T01:50:14;15.20;99.90
15959;DHT22;8078;47.822;9.402;2022-08-19T01:52:42;15.20;99.90
15959;DHT22;8078;47.822;9.402;2022-08-19T01:55:11;15.20;99.90
15959;DHT22;8078;47.822;9.402;2022-08-19T01:57:39;15.20;99.90
15959;DHT22;8078;47.822;9.402;2022-08-19T02:00:08;15.20;99.90
15959;DHT22;8078;47.822;9.402;2022-08-19T02:02:34;15.30;99.90
15959;DHT22;8078;47.822;9.402;2022-08-19T02:04:59;15.20;99.90
15959;DHT22;8078;47.822;9.402;2022-08-19T02:07:25;15.30;99.90
15959;DHT22;8078;47.822;9.402;2022-08-19T02:09:50;15.30;99.90
15959;DHT22;8078;47.822;9.402;2022-08-19T02:12:16;15.30;99.90
15959;DHT22;8078;47.822;9.402;2022-08-19T02:14:42;15.30;99.90
15959;DHT22;8078;47.822;9.402;2022-08-19T02:17:08;15.30;99.90
15959;DHT22;8078;47.822;9.402;2022-08-19T02:19:34;15.30;99.90
15959;DHT22;8078;47.822;9.402;2022-08-19T02:22:00;15.30;99.90
15959;DHT22;8078;47.822;9.402;2022-08-19T02:24:26;15.30;99.90
15959;DHT22;8078;47.822;9.402;2022-08-19T02:26:52;15.30;99.90
15959;DHT22;8078;47.822;9.402;2022-08-19T02:29:18;15.30;99.90
15959;DHT22;8078;47.822;9.402;2022-08-19T02:31:44;15.30;99.90
15959;DHT22;8078;47.822;9.402;2022-08-19T02:34:09;15.40;99.90
15959;DHT22;8078;47.822;9.402;2022-08-19T02:36:35;15.40;99.90
15959;DHT22;8078;47.822;9.402;2022-08-19T02:39:01;15.40;99.90
15959;DHT22;8078;47.822;9.402;2022-08-19T02:41:29;15.40;99.90
15959;DHT22;8078;47.822;9.402;2022-08-19T02:43:57;15.40;99.90
15959;DHT22;8078;47.822;9.402;2022-08-19T02:46:25;15.40;99.90
15959;DHT22;8078;47.822;9.402;2022-08-19T02:48:55;15.40;99.90
15959;DHT22;8078;47.822;9.402;2022-08-19T02:51:27;15.40;99.90
15959;DHT22;8078;47.822;9.402;2022-08-19T02:53:54;15.40;99.90
15959;DHT22;8078;47.822;9.402;2022-08-19T02:56:22;15.50;99.90
15959;DHT22;8078;47.822;9.402;2022-08-19T02:58:48;15.50;99.90
15959;DHT22;8078;47.822;9.402;2022-08-19T03:03:50;15.40;99.90
15959;DHT22;8078;47.822;9.402;2022-08-19T03:06:16;15.40;99.90
15959;DHT22;8078;47.822;9.402;2022-08-19T03:08:44;15.40;99.90
15959;DHT22;8078;47.822;9.402;2022-08-19T03:11:20;15.40;99.90
15959;DHT22;8078;47.822;9.402;2022-08-19T03:13:46;15.40;99.90
15959;DHT22;8078;47.822;9.402;2022-08-19T03:16:15;15.40;99.90
15959;DHT22;8078;47.822;9.402;2022-08-19T03:18:41;15.40;99.90
15959;DHT22;8078;47.822;9.402;2022-08-19T03:21:07;15.40;99.90
15959;DHT22;8078;47.822;9.402;2022-08-19T03:23:33;15.40;99.90
15959;DHT22;8078;47.822;9.402;2022-08-19T03:26:02;15.30;99.90
15959;DHT22;8078;47.822;9.402;2022-08-19T03:28:28;15.30;99.90
15959;DHT22;8078;47.822;9.402;2022-08-19T03:30:56;15.30;99.90
15959;DHT22;8078;47.822;9.402;2022-08-19T03:33:23;15.30;99.90
15959;DHT22;8078;47.822;9.402;2022-08-19T03:38:48;15.30;99.90
15959;DHT22;8078;47.822;9.402;2022-08-19T03:41:23;15.40;99.90
15959;DHT22;8078;47.822;9.402;2022-08-19T03:43:49;15.40;99.90
15959;DHT22;8078;47.822;9.402;2022-08-19T03:46:18;15.40;99.90
15959;DHT22;8078;47.822;9.402;2022-08-19T03:48:46;15.40;99.90
15959;DHT22;8078;47.822;9.402;2022-08-19T03:51:32;15.40;99.90
15959;DHT22;8078;47.822;9.402;2022-08-19T03:54:01;15.30;99.90
15959;DHT22;8078;47.822;9.402;2022-08-19T03:56:28;15.30;99.90
15959;DHT22;8078;47.822;9.402;2022-08-19T03:58:55;15.30;99.90
15959;DHT22;8078;47.822;9.402;2022-08-19T04:01:24;15.30;99.90
15959;DHT22;8078;47.822;9.402;2022-08-19T04:03:51;15.30;99.90
15959;DHT22;8078;47.822;9.402;2022-08-19T04:06:25;15.30;99.90
15959;DHT22;8078;47.822;9.402;2022-08-19T04:08:52;15.30;99.90
15959;DHT22;8078;47.822;9.402;2022-08-19T04:11:21;15.30;99.90
15959;DHT22;8078;47.822;9.402;2022-08-19T04:13:48;15.30;99.90
15959;DHT22;8078;47.822;9.402;2022-08-19T04:16:14;15.30;99.90
15959;DHT22;8078;47.822;9.402;2022-08-19T04:18:40;15.30;99.90
15959;DHT22;8078;47.822;9.402;2022-08-19T04:21:07;15.30;99.90
15959;DHT22;8078;47.822;9.402;2022-08-19T04:23:34;15.30;99.90
15959;DHT22;8078;47.822;9.402;2022-08-19T04:26:01;15.30;99.90
15959;DHT22;8078;47.822;9.402;2022-08-19T04:28:27;15.40;99.90
15959;DHT22;8078;47.822;9.402;2022-08-19T04:30:54;15.40;99.90
15959;DHT22;8078;47.822;9.402;2022-08-19T04:33:22;15.40;99.90
15959;DHT22;8078;47.822;9.402;2022-08-19T04:35:50;15.40;99.90
15959;DHT22;8078;47.822;9.402;2022-08-19T04:38:20;15.40;99.90
15959;DHT22;8078;47.822;9.402;2022-08-19T04:40:49;15.50;99.90
15959;DHT22;8078;47.822;9.402;2022-08-19T04:43:35;15.40;99.90
15959;DHT22;8078;47.822;9.402;2022-08-19T04:46:09;15.40;99.90
15959;DHT22;8078;47.822;9.402;2022-08-19T04:48:36;15.40;99.90
15959;DHT22;8078;47.822;9.402;2022-08-19T04:51:07;15.30;99.90
15959;DHT22;8078;47.822;9.402;2022-08-19T04:53:35;15.30;99.90
15959;DHT22;8078;47.822;9.402;2022-08-19T04:56:09;15.30;99.90
15959;DHT22;8078;47.822;9.402;2022-08-19T04:58:36;15.30;99.90
15959;DHT22;8078;47.822;9.402;2022-08-19T05:01:03;15.30;99.90
15959;DHT22;8078;47.822;9.402;2022-08-19T05:03:28;15.40;99.90
15959;DHT22;8078;47.822;9.402;2022-08-19T05:05:58;15.40;99.90
15959;DHT22;8078;47.822;9.402;2022-08-19T05:08:23;15.50;99.90
15959;DHT22;8078;47.822;9.402;2022-08-19T05:10:50;15.50;99.90
15959;DHT22;8078;47.822;9.402;2022-08-19T05:13:17;15.50;99.90
15959;DHT22;8078;47.822;9.402;2022-08-19T05:15:44;15.50;99.90
15959;DHT22;8078;47.822;9.402;2022-08-19T05:18:10;15.50;99.90
15959;DHT22;8078;47.822;9.402;2022-08-19T05:20:54;15.50;99.90
15959;DHT22;8078;47.822;9.402;2022-08-19T05:23:39;15.50;99.90
15959;DHT22;8078;47.822;9.402;2022-08-19T05:26:04;15.50;99.90
15959;DHT22;8078;47.822;9.402;2022-08-19T05:28:30;15.50;99.90
15959;DHT22;8078;47.822;9.402;2022-08-19T05:30:56;15.50;99.90
15959;DHT22;8078;47.822;9.402;2022-08-19T05:33:23;15.50;99.90
15959;DHT22;8078;47.822;9.402;2022-08-19T05:35:50;15.50;99.90
15959;DHT22;8078;47.822;9.402;2022-08-19T05:38:18;15.50;99.90
15959;DHT22;8078;47.822;9.402;2022-08-19T05:40:44;15.60;99.90
15959;DHT22;8078;47.822;9.402;2022-08-19T05:43:13;15.60;99.90
15959;DHT22;8078;47.822;9.402;2022-08-19T05:45:41;15.60;99.90
15959;DHT22;8078;47.822;9.402;2022-08-19T05:48:08;15.60;99.90
15959;DHT22;8078;47.822;9.402;2022-08-19T05:50:37;15.60;99.90
15959;DHT22;8078;47.822;9.402;2022-08-19T05:53:04;15.60;99.90
15959;DHT22;8078;47.822;9.402;2022-08-19T05:55:29;15.60;99.90
15959;DHT22;8078;47.822;9.402;2022-08-19T05:57:55;15.60;99.90
15959;DHT22;8078;47.822;9.402;2022-08-19T06:00:21;15.60;99.90
15959;DHT22;8078;47.822;9.402;2022-08-19T06:02:46;15.50;99.90
15959;DHT22;8078;47.822;9.402;2022-08-19T06:05:12;15.50;99.90
15959;DHT22;8078;47.822;9.402;2022-08-19T06:07:39;15.40;99.90
15959;DHT22;8078;47.822;9.402;2022-08-19T06:10:07;15.50;99.90
15959;DHT22;8078;47.822;9.402;2022-08-19T06:12:34;15.40;99.90
15959;DHT22;8078;47.822;9.402;2022-08-19T06:15:19;15.40;99.90
15959;DHT22;8078;47.822;9.402;2022-08-19T06:17:44;15.40;99.90
15959;DHT22;8078;47.822;9.402;2022-08-19T06:20:12;15.40;99.90
15959;DHT22;8078;47.822;9.402;2022-08-19T06:22:39;15.50;99.90
15959;DHT22;8078;47.822;9.402;2022-08-19T06:25:05;15.40;99.90
15959;DHT22;8078;47.822;9.402;2022-08-19T06:27:31;15.50;99.90
15959;DHT22;8078;47.822;9.402;2022-08-19T06:29:58;15.50;99.90
15959;DHT22;8078;47.822;9.402;2022-08-19T06:32:24;15.50;99.90
15959;DHT22;8078;47.822;9.402;2022-08-19T06:34:49;15.50;99.90
15959;DHT22;8078;47.822;9.402;2022-08-19T06:37:15;15.60;99.90
15959;DHT22;8078;47.822;9.402;2022-08-19T06:39:43;15.50;99.90
15959;DHT22;8078;47.822;9.402;2022-08-19T06:42:10;15.60;99.90
15959;DHT22;8078;47.822;9.402;2022-08-19T06:44:38;15.60;99.90
15959;DHT22;8078;47.822;9.402;2022-08-19T06:47:06;15.60;99.90
15959;DHT22;8078;47.822;9.402;2022-08-19T06:49:32;15.60;99.90
15959;DHT22;8078;47.822;9.402;2022-08-19T06:51:59;15.60;99.90
15959;DHT22;8078;47.822;9.402;2022-08-19T06:54:26;15.60;99.90
15959;DHT22;8078;47.822;9.402;2022-08-19T06:56:53;15.60;99.90
15959;DHT22;8078;47.822;9.402;2022-08-19T06:59:21;15.60;99.90
15959;DHT22;8078;47.822;9.402;2022-08-19T07:01:50;15.60;99.90
15959;DHT22;8078;47.822;9.402;2022-08-19T07:04:21;15.60;99.90
15959;DHT22;8078;47.822;9.402;2022-08-19T07:06:48;15.50;99.90
15959;DHT22;8078;47.822;9.402;2022-08-19T07:09:16;15.50;99.90
15959;DHT22;8078;47.822;9.402;2022-08-19T07:11:48;15.50;99.90
15959;DHT22;8078;47.822;9.402;2022-08-19T07:14:15;15.50;99.90
15959;DHT22;8078;47.822;9.402;2022-08-19T07:16:43;15.50;99.90
15959;DHT22;8078;47.822;9.402;2022-08-19T07:19:11;15.40;99.90
15959;DHT22;8078;47.822;9.402;2022-08-19T07:21:37;15.40;99.90
15959;DHT22;8078;47.822;9.402;2022-08-19T07:24:03;15.40;99.90
15959;DHT22;8078;47.822;9.402;2022-08-19T07:26:33;15.40;99.90
15959;DHT22;8078;47.822;9.402;2022-08-19T07:28:59;15.50;99.90
15959;DHT22;8078;47.822;9.402;2022-08-19T07:31:27;15.40;99.90
15959;DHT22;8078;47.822;9.402;2022-08-19T07:33:55;15.40;99.90
15959;DHT22;8078;47.822;9.402;2022-08-19T07:36:27;15.40;99.90
15959;DHT22;8078;47.822;9.402;2022-08-19T07:38:58;15.40;99.90
15959;DHT22;8078;47.822;9.402;2022-08-19T07:41:26;15.40;99.90
15959;DHT22;8078;47.822;9.402;2022-08-19T07:43:54;15.40;99.90
15959;DHT22;8078;47.822;9.402;2022-08-19T07:46:20;15.40;99.90
15959;DHT22;8078;47.822;9.402;2022-08-19T07:48:48;15.40;99.90
15959;DHT22;8078;47.822;9.402;2022-08-19T07:51:17;15.40;99.90
15959;DHT22;8078;47.822;9.402;2022-08-19T07:53:44;15.40;99.90
15959;DHT22;8078;47.822;9.402;2022-08-19T07:56:11;15.40;99.90
15959;DHT22;8078;47.822;9.402;2022-08-19T07:58:39;15.40;99.90
15959;DHT22;8078;47.822;9.402;2022-08-19T08:01:08;15.40;99.90
15959;DHT22;8078;47.822;9.402;2022-08-19T08:03:36;15.40;99.90
15959;DHT22;8078;47.822;9.402;2022-08-19T08:06:20;15.40;99.90
15959;DHT22;8078;47.822;9.402;2022-08-19T08:09:05;15.40;99.90
15959;DHT22;8078;47.822;9.402;2022-08-19T08:11:52;15.40;99.90
15959;DHT22;8078;47.822;9.402;2022-08-19T08:14:24;15.50;99.90
15959;DHT22;8078;47.822;9.402;2022-08-19T08:16:50;15.50;99.90
15959;DHT22;8078;47.822;9.402;2022-08-19T08:19:18;15.50;99.90
15959;DHT22;8078;47.822;9.402;2022-08-19T08:21:44;15.50;99.90
15959;DHT22;8078;47.822;9.402;2022-08-19T08:24:11;15.50;99.90
15959;DHT22;8078;47.822;9.402;2022-08-19T08:26:36;15.50;99.90
15959;DHT22;8078;47.822;9.402;2022-08-19T08:29:02;15.50;99.90
15959;DHT22;8078;47.822;9.402;2022-08-19T08:31:28;15.50;99.90
15959;DHT22;8078;47.822;9.402;2022-08-19T08:33:54;15.40;99.90
15959;DHT22;8078;47.822;9.402;2022-08-19T08:36:20;15.50;99.90
15959;DHT22;8078;47.822;9.402;2022-08-19T08:38:46;15.50;99.90
15959;DHT22;8078;47.822;9.402;2022-08-19T08:43:51;15.50;99.90
15959;DHT22;8078;47.822;9.402;2022-08-19T08:46:23;15.50;99.90
15959;DHT22;8078;47.822;9.402;2022-08-19T08:49:15;15.50;99.90
15959;DHT22;8078;47.822;9.402;2022-08-19T08:51:46;15.50;99.90
15959;DHT22;8078;47.822;9.402;2022-08-19T08:54:16;15.50;99.90
15959;DHT22;8078;47.822;9.402;2022-08-19T08:56:44;15.50;99.90
15959;DHT22;8078;47.822;9.402;2022-08-19T08:59:26;15.50;99.90
15959;DHT22;8078;47.822;9.402;2022-08-19T09:01:53;15.50;99.90
15959;DHT22;8078;47.822;9.402;2022-08-19T09:04:19;15.50;99.90
15959;DHT22;8078;47.822;9.402;2022-08-19T09:09:50;15.50;99.90
15959;DHT22;8078;47.822;9.402;2022-08-19T09:15:12;15.50;99.90
15959;DHT22;8078;47.822;9.402;2022-08-19T09:17:38;15.60;99.90
15959;DHT22;8078;47.822;9.402;2022-08-19T09:20:18;15.50;99.90
15959;DHT22;8078;47.822;9.402;2022-08-19T09:22:44;15.50;99.90
15959;DHT22;8078;47.822;9.402;2022-08-19T09:25:13;15.50;99.90
15959;DHT22;8078;47.822;9.402;2022-08-19T09:27:40;15.50;99.90
15959;DHT22;8078;47.822;9.402;2022-08-19T09:30:08;15.50;99.90
15959;DHT22;8078;47.822;9.402;2022-08-19T09:32:34;15.50;99.90
15959;DHT22;8078;47.822;9.402;2022-08-19T09:34:59;15.50;99.90
15959;DHT22;8078;47.822;9.402;2022-08-19T09:37:26;15.50;99.90
15959;DHT22;8078;47.822;9.402;2022-08-19T09:39:52;15.40;99.90
15959;DHT22;8078;47.822;9.402;2022-08-19T09:42:19;15.40;99.90
15959;DHT22;8078;47.822;9.402;2022-08-19T09:44:45;15.40;99.90
15959;DHT22;8078;47.822;9.402;2022-08-19T09:47:12;15.40;99.90
15959;DHT22;8078;47.822;9.402;2022-08-19T09:49:39;15.40;99.90
15959;DHT22;8078;47.822;9.402;2022-08-19T09:52:07;15.40;99.90
15959;DHT22;8078;47.822;9.402;2022-08-19T09:54:33;15.40;99.90
15959;DHT22;8078;47.822;9.402;2022-08-19T09:56:59;15.40;99.90
15959;DHT22;8078;47.822;9.402;2022-08-19T09:59:28;15.50;99.90
15959;DHT22;8078;47.822;9.402;2022-08-19T10:01:54;15.50;99.90
15959;DHT22;8078;47.822;9.402;2022-08-19T10:04:19;15.50;99.90
15959;DHT22;8078;47.822;9.402;2022-08-19T10:06:47;15.50;99.90
15959;DHT22;8078;47.822;9.402;2022-08-19T10:09:15;15.60;99.90
15959;DHT22;8078;47.822;9.402;2022-08-19T10:11:42;15.60;99.90
15959;DHT22;8078;47.822;9.402;2022-08-19T10:14:08;15.60;99.90
15959;DHT22;8078;47.822;9.402;2022-08-19T10:16:36;15.60;99.90
15959;DHT22;8078;47.822;9.402;2022-08-19T10:19:02;15.60;99.90
15959;DHT22;8078;47.822;9.402;2022-08-19T10:21:31;15.60;99.90
15959;DHT22;8078;47.822;9.402;2022-08-19T10:23:59;15.60;99.90
15959;DHT22;8078;47.822;9.402;2022-08-19T10:26:28;15.60;99.90
15959;DHT22;8078;47.822;9.402;2022-08-19T10:28:54;15.60;99.90
15959;DHT22;8078;47.822;9.402;2022-08-19T10:31:24;15.60;99.90
15959;DHT22;8078;47.822;9.402;2022-08-19T10:33:51;15.60;99.90
15959;DHT22;8078;47.822;9.402;2022-08-19T10:36:22;15.50;99.90
15959;DHT22;8078;47.822;9.402;2022-08-19T10:38:51;15.50;99.90
15959;DHT22;8078;47.822;9.402;2022-08-19T10:41:19;15.50;99.90
15959;DHT22;8078;47.822;9.402;2022-08-19T10:43:45;15.50;99.90
15959;DHT22;8078;47.822;9.402;2022-08-19T10:46:14;15.50;99.90
15959;DHT22;8078;47.822;9.402;2022-08-19T10:48:41;15.60;99.90
15959;DHT22;8078;47.822;9.402;2022-08-19T10:51:07;15.60;99.90
15959;DHT22;8078;47.822;9.402;2022-08-19T10:53:52;15.60;99.90
15959;DHT22;8078;47.822;9.402;2022-08-19T10:56:18;15.70;99.90
15959;DHT22;8078;47.822;9.402;2022-08-19T10:59:04;15.70;99.90
15959;DHT22;8078;47.822;9.402;2022-08-19T11:01:31;15.60;99.90
15959;DHT22;8078;47.822;9.402;2022-08-19T11:03:59;15.70;99.90
15959;DHT22;8078;47.822;9.402;2022-08-19T11:06:24;15.70;99.90
15959;DHT22;8078;47.822;9.402;2022-08-19T11:08:54;15.70;99.90
15959;DHT22;8078;47.822;9.402;2022-08-19T11:11:20;15.70;99.90
15959;DHT22;8078;47.822;9.402;2022-08-19T11:13:49;15.70;99.90
15959;DHT22;8078;47.822;9.402;2022-08-19T11:16:20;15.70;99.90
15959;DHT22;8078;47.822;9.402;2022-08-19T11:18:52;15.80;99.90
15959;DHT22;8078;47.822;9.402;2022-08-19T11:21:28;15.80;99.90
15959;DHT22;8078;47.822;9.402;2022-08-19T11:24:00;15.80;99.90
15959;DHT22;8078;47.822;9.402;2022-08-19T11:26:27;15.80;99.90
15959;DHT22;8078;47.822;9.402;2022-08-19T11:28:53;15.80;99.90
15959;DHT22;8078;47.822;9.402;2022-08-19T11:31:22;15.80;99.90
15959;DHT22;8078;47.822;9.402;2022-08-19T11:33:49;15.90;99.90
15959;DHT22;8078;47.822;9.402;2022-08-19T11:36:20;15.80;99.90
15959;DHT22;8078;47.822;9.402;2022-08-19T11:38:49;15.90;99.90
15959;DHT22;8078;47.822;9.402;2022-08-19T11:41:17;15.90;99.90
15959;DHT22;8078;47.822;9.402;2022-08-19T11:43:44;15.90;99.90
15959;DHT22;8078;47.822;9.402;2022-08-19T11:46:12;15.90;99.90
15959;DHT22;8078;47.822;9.402;2022-08-19T11:48:38;16.00;99.90
15959;DHT22;8078;47.822;9.402;2022-08-19T11:51:06;16.00;99.90
15959;DHT22;8078;47.822;9.402;2022-08-19T11:53:32;16.00;99.90
15959;DHT22;8078;47.822;9.402;2022-08-19T11:55:58;16.00;99.90
15959;DHT22;8078;47.822;9.402;2022-08-19T11:58:24;16.10;99.90
15959;DHT22;8078;47.822;9.402;2022-08-19T12:00:50;16.10;99.90
15959;DHT22;8078;47.822;9.402;2022-08-19T12:03:16;16.10;99.90
15959;DHT22;8078;47.822;9.402;2022-08-19T12:05:43;16.10;99.90
15959;DHT22;8078;47.822;9.402;2022-08-19T12:08:09;16.10;99.90
15959;DHT22;8078;47.822;9.402;2022-08-19T12:10:35;16.20;99.90
15959;DHT22;8078;47.822;9.402;2022-08-19T12:13:01;16.20;99.90
15959;DHT22;8078;47.822;9.402;2022-08-19T12:15:27;16.10;99.90
15959;DHT22;8078;47.822;9.402;2022-08-19T12:17:55;16.10;99.90
15959;DHT22;8078;47.822;9.402;2022-08-19T12:20:23;16.10;99.90
15959;DHT22;8078;47.822;9.402;2022-08-19T12:22:48;16.10;99.90
15959;DHT22;8078;47.822;9.402;2022-08-19T12:25:14;16.20;99.90
15959;DHT22;8078;47.822;9.402;2022-08-19T12:27:40;16.10;99.90
15959;DHT22;8078;47.822;9.402;2022-08-19T12:30:08;16.20;99.90
15959;DHT22;8078;47.822;9.402;2022-08-19T12:32:34;16.20;99.90
15959;DHT22;8078;47.822;9.402;2022-08-19T12:35:00;16.10;99.90
15959;DHT22;8078;47.822;9.402;2022-08-19T12:37:26;16.10;99.90
15959;DHT22;8078;47.822;9.402;2022-08-19T12:39:51;16.00;99.90
15959;DHT22;8078;47.822;9.402;2022-08-19T12:42:17;16.10;99.90
15959;DHT22;8078;47.822;9.402;2022-08-19T12:44:43;16.10;99.90
15959;DHT22;8078;47.822;9.402;2022-08-19T12:47:12;16.10;99.90
15959;DHT22;8078;47.822;9.402;2022-08-19T12:49:39;16.10;99.90
15959;DHT22;8078;47.822;9.402;2022-08-19T12:52:06;16.10;99.90
15959;DHT22;8078;47.822;9.402;2022-08-19T12:54:33;16.10;99.90
15959;DHT22;8078;47.822;9.402;2022-08-19T12:56:59;16.10;99.90
15959;DHT22;8078;47.822;9.402;2022-08-19T12:59:25;16.10;99.90
15959;DHT22;8078;47.822;9.402;2022-08-19T13:01:51;16.00;99.90
15959;DHT22;8078;47.822;9.402;2022-08-19T13:04:17;16.10;99.90
15959;DHT22;8078;47.822;9.402;2022-08-19T13:06:43;16.10;99.90
15959;DHT22;8078;47.822;9.402;2022-08-19T13:09:09;16.10;99.90
15959;DHT22;8078;47.822;9.402;2022-08-19T13:11:36;16.10;99.90
15959;DHT22;8078;47.822;9.402;2022-08-19T13:14:03;16.00;99.90
15959;DHT22;8078;47.822;9.402;2022-08-19T13:16:29;16.10;99.90
15959;DHT22;8078;47.822;9.402;2022-08-19T13:18:56;16.20;99.90
15959;DHT22;8078;47.822;9.402;2022-08-19T13:21:25;16.10;99.90
15959;DHT22;8078;47.822;9.402;2022-08-19T13:23:51;16.10;99.90
15959;DHT22;8078;47.822;9.402;2022-08-19T13:26:18;16.20;99.90
15959;DHT22;8078;47.822;9.402;2022-08-19T13:28:44;16.00;99.90
15959;DHT22;8078;47.822;9.402;2022-08-19T13:31:32;16.00;99.90
15959;DHT22;8078;47.822;9.402;2022-08-19T13:34:19;16.00;99.90
15959;DHT22;8078;47.822;9.402;2022-08-19T13:36:52;16.10;99.90
15959;DHT22;8078;47.822;9.402;2022-08-19T13:39:18;16.10;99.90
15959;DHT22;8078;47.822;9.402;2022-08-19T13:41:45;16.10;99.90
15959;DHT22;8078;47.822;9.402;2022-08-19T13:44:16;16.10;99.90
15959;DHT22;8078;47.822;9.402;2022-08-19T13:46:43;16.10;99.90
15959;DHT22;8078;47.822;9.402;2022-08-19T13:49:11;16.10;99.90
15959;DHT22;8078;47.822;9.402;2022-08-19T13:51:38;16.10;99.90
15959;DHT22;8078;47.822;9.402;2022-08-19T13:54:06;16.10;99.90
15959;DHT22;8078;47.822;9.402;2022-08-19T13:56:31;16.10;99.90
15959;DHT22;8078;47.822;9.402;2022-08-19T13:58:57;16.10;99.90
15959;DHT22;8078;47.822;9.402;2022-08-19T14:01:23;16.10;99.90
15959;DHT22;8078;47.822;9.402;2022-08-19T14:03:49;16.10;99.90
15959;DHT22;8078;47.822;9.402;2022-08-19T14:06:15;16.10;99.90
15959;DHT22;8078;47.822;9.402;2022-08-19T14:08:42;16.10;99.90
15959;DHT22;8078;47.822;9.402;2022-08-19T14:11:08;16.10;99.90
15959;DHT22;8078;47.822;9.402;2022-08-19T14:13:35;16.00;99.90
15959;DHT22;8078;47.822;9.402;2022-08-19T14:16:01;16.10;99.90
15959;DHT22;8078;47.822;9.402;2022-08-19T14:18:31;16.00;99.90
15959;DHT22;8078;47.822;9.402;2022-08-19T14:20:57;15.90;99.90
15959;DHT22;8078;47.822;9.402;2022-08-19T14:23:23;15.90;99.90
15959;DHT22;8078;47.822;9.402;2022-08-19T14:25:48;16.00;99.90
15959;DHT22;8078;47.822;9.402;2022-08-19T14:28:14;16.00;99.90
15959;DHT22;8078;47.822;9.402;2022-08-19T14:30:39;16.00;99.90
15959;DHT22;8078;47.822;9.402;2022-08-19T14:33:06;16.00;99.90
15959;DHT22;8078;47.822;9.402;2022-08-19T14:35:33;16.00;99.90
15959;DHT22;8078;47.822;9.402;2022-08-19T14:38:01;15.90;99.90
15959;DHT22;8078;47.822;9.402;2022-08-19T14:40:29;16.00;99.90
15959;DHT22;8078;47.822;9.402;2022-08-19T14:42:57;16.00;99.90
15959;DHT22;8078;47.822;9.402;2022-08-19T14:45:26;16.00;99.90
15959;DHT22;8078;47.822;9.402;2022-08-19T14:47:52;16.00;99.90
15959;DHT22;8078;47.822;9.402;2022-08-19T14:50:18;16.00;99.90
15959;DHT22;8078;47.822;9.402;2022-08-19T14:52:44;16.00;99.90
15959;DHT22;8078;47.822;9.402;2022-08-19T14:55:10;16.00;99.90
15959;DHT22;8078;47.822;9.402;2022-08-19T14:57:36;16.00;99.90
15959;DHT22;8078;47.822;9.402;2022-08-19T15:00:03;15.90;99.90
15959;DHT22;8078;47.822;9.402;2022-08-19T15:02:29;15.90;99.90
15959;DHT22;8078;47.822;9.402;2022-08-19T15:04:54;15.90;99.90
15959;DHT22;8078;47.822;9.402;2022-08-19T15:07:21;15.90;99.90
15959;DHT22;8078;47.822;9.402;2022-08-19T15:09:49;15.90;99.90
15959;DHT22;8078;47.822;9.402;2022-08-19T15:12:16;15.90;99.90
15959;DHT22;8078;47.822;9.402;2022-08-19T15:14:41;15.80;99.90
15959;DHT22;8078;47.822;9.402;2022-08-19T15:17:09;15.80;99.90
15959;DHT22;8078;47.822;9.402;2022-08-19T15:19:35;15.80;99.90
15959;DHT22;8078;47.822;9.402;2022-08-19T15:22:01;15.70;99.90
15959;DHT22;8078;47.822;9.402;2022-08-19T15:24:26;15.70;99.90
15959;DHT22;8078;47.822;9.402;2022-08-19T15:26:55;15.70;99.90
15959;DHT22;8078;47.822;9.402;2022-08-19T15:29:21;15.70;99.90
15959;DHT22;8078;47.822;9.402;2022-08-19T15:31:50;15.70;99.90
15959;DHT22;8078;47.822;9.402;2022-08-19T15:34:16;15.70;99.90
15959;DHT22;8078;47.822;9.402;2022-08-19T15:36:42;15.70;99.90
15959;DHT22;8078;47.822;9.402;2022-08-19T15:39:08;15.70;99.90
15959;DHT22;8078;47.822;9.402;2022-08-19T15:41:35;15.70;99.90
15959;DHT22;8078;47.822;9.402;2022-08-19T15:44:07;15.70;99.90
15959;DHT22;8078;47.822;9.402;2022-08-19T15:46:36;15.70;99.90
15959;DHT22;8078;47.822;9.402;2022-08-19T15:49:03;15.60;99.90
15959;DHT22;8078;47.822;9.402;2022-08-19T15:51:30;15.60;99.90
15959;DHT22;8078;47.822;9.402;2022-08-19T15:53:58;15.60;99.90
15959;DHT22;8078;47.822;9.402;2022-08-19T15:56:23;15.60;99.90
15959;DHT22;8078;47.822;9.402;2022-08-19T15:58:49;15.60;99.90
15959;DHT22;8078;47.822;9.402;2022-08-19T16:01:33;15.60;99.90
15959;DHT22;8078;47.822;9.402;2022-08-19T16:04:17;15.60;99.90